This is the latest recevied weather packets stored in our database for station/object MIDVIL-WX. If no packets are shown the sender has not sent any weather packets the latest 10 day(s).
| Time | Temp. | Humidity | Pressure | Rain* | Wind** | Luminosity | Snow |
|---|---|---|---|---|---|---|---|
| 1777658452 | 7.22° C | 60% | 989.5 hPa | 0 mm | - | - | - |
| 1777657525 | 7.22° C | 57% | 990.4 hPa | 0 mm | - | - | - |
| 1777656641 | 7.22° C | 56% | 989.7 hPa | 0 mm | - | - | - |
| 1777655725 | 7.22° C | 56% | 989.8 hPa | 0 mm | - | - | - |
| 1777654851 | 7.22° C | 56% | 989.8 hPa | 0 mm | - | - | - |
| 1777653925 | 7.22° C | 57% | 988.5 hPa | 0 mm | - | - | - |
| 1777653044 | 7.78° C | 58% | 988.8 hPa | 0 mm | - | - | - |
| 1777652125 | 7.22° C | 58% | 988.8 hPa | 0 mm | - | - | - |
| 1777651257 | 7.22° C | 58% | 988.8 hPa | 0 mm | - | - | - |
| 1777650325 | 7.22° C | 63% | 988.8 hPa | 0 mm | - | - | - |
| 1777649441 | 6.67° C | 56% | 989.4 hPa | 0 mm | - | - | - |
| 1777648525 | 6.67° C | 56% | 989.4 hPa | 0 mm | - | - | - |
| 1777647653 | 6.67° C | 56% | 989.4 hPa | 0 mm | - | - | - |
| 1777646725 | 6.67° C | 61% | 988.7 hPa | 0 mm | - | - | - |
| 1777645844 | 6.67° C | 56% | 989.3 hPa | 0 mm | - | - | - |
| 1777644925 | 6.11° C | 56% | 989.3 hPa | 0 mm | - | - | - |
| 1777644057 | 6.11° C | 56% | 989.3 hPa | 0 mm | - | - | - |
| 1777643125 | 5.56° C | 62% | 988.7 hPa | 0 mm | - | - | - |
| 1777642242 | 5.56° C | 62% | 988.7 hPa | 0 mm | - | - | - |
| 1777641325 | 5° C | 62% | 988.6 hPa | 0 mm | - | - | - |
| 1777640452 | 4.44° C | 62% | 988.6 hPa | 0 mm | - | - | - |
| 1777639526 | 3.89° C | 68% | 988.2 hPa | 0 mm | - | - | - |
| 1777638642 | 3.89° C | 67% | 988.3 hPa | 0 mm | - | - | - |
| 1777637725 | 3.89° C | 67% | 988.3 hPa | 0 mm | - | - | - |
| 1777636854 | 3.89° C | 67% | 988.3 hPa | 0 mm | - | - | - |
* Rain latest hour (hover to see other rain measurements)
** Current wind speed in m/s (hover to see current wind gust speed)